createdAt,value
2023-04-11T00:02:06.205Z,95383.44
2023-04-11T00:04:39.130Z,95376.44
2023-04-11T00:07:10.650Z,95364.91
2023-04-11T00:09:40.188Z,95353.66
2023-04-11T00:12:09.763Z,95353.38
2023-04-11T00:14:45.420Z,95345.91
2023-04-11T00:17:15.942Z,95346.72
2023-04-11T00:19:46.117Z,95354.53
2023-04-11T00:22:17.741Z,95368.19
2023-04-11T00:24:47.250Z,95367.13
2023-04-11T00:27:16.739Z,95357.19
2023-04-11T00:29:46.151Z,95351.28
2023-04-11T00:32:15.629Z,95336.00
2023-04-11T00:34:45.087Z,95332.75
2023-04-11T00:37:16.101Z,95309.94
2023-04-11T00:39:46.101Z,95308.34
2023-04-11T00:42:15.636Z,95299.75
2023-04-11T00:44:45.138Z,95298.13
2023-04-11T00:47:15.189Z,95304.28
2023-04-11T00:49:44.792Z,95295.44
2023-04-11T00:52:15.681Z,95292.16
2023-04-11T00:54:45.366Z,95291.34
2023-04-11T00:57:15.764Z,95297.22
2023-04-11T00:59:48.213Z,95304.78
2023-04-11T01:02:18.264Z,95309.63
2023-04-11T01:04:48.500Z,95304.00
2023-04-11T01:07:20.894Z,95310.16
2023-04-11T01:09:52.308Z,95313.94
2023-04-11T01:12:22.133Z,95316.38
2023-04-11T01:14:52.555Z,95308.88
2023-04-11T01:17:22.473Z,95301.06
2023-04-11T01:19:52.039Z,95286.28
2023-04-11T01:22:24.624Z,95282.25
2023-04-11T01:24:56.450Z,95280.38
2023-04-11T01:27:26.798Z,95262.94
2023-04-11T01:29:56.668Z,95259.19
2023-04-11T01:32:27.850Z,95264.56
2023-04-11T01:35:00.072Z,95277.72
2023-04-11T01:37:29.673Z,95277.97
2023-04-11T01:40:00.667Z,95266.72
2023-04-11T01:42:31.884Z,95244.94
2023-04-11T01:45:02.138Z,95244.13
2023-04-11T01:47:31.879Z,95257.56
2023-04-11T01:50:02.232Z,95253.28
2023-04-11T01:52:31.873Z,95247.09
2023-04-11T01:55:02.675Z,95231.53
2023-04-11T01:57:32.310Z,95216.50
2023-04-11T02:00:01.962Z,95217.84
2023-04-11T02:02:32.841Z,95217.00
2023-04-11T02:05:02.482Z,95200.91
2023-04-11T02:07:31.938Z,95198.47
2023-04-11T02:10:02.760Z,95201.16
2023-04-11T02:12:32.311Z,95194.44
2023-04-11T02:15:01.797Z,95200.91
2023-04-11T02:17:31.872Z,95188.53
2023-04-11T02:20:01.680Z,95192.25
2023-04-11T02:22:32.523Z,95194.13
2023-04-11T02:25:03.386Z,95188.75
2023-04-11T02:27:34.106Z,95186.50
2023-04-11T02:30:06.069Z,95176.53
2023-04-11T02:32:36.345Z,95166.50
2023-04-11T02:35:07.716Z,95163.72
2023-04-11T02:37:37.423Z,95152.16
2023-04-11T02:40:10.626Z,95147.25
2023-04-11T02:42:43.192Z,95151.50
2023-04-11T02:45:13.624Z,95147.94
2023-04-11T02:47:43.361Z,95153.50
2023-04-11T02:50:13.842Z,95158.81
2023-04-11T02:52:49.931Z,95153.03
2023-04-11T02:55:25.002Z,95156.81
2023-04-11T02:57:54.740Z,95150.75
2023-04-11T03:00:24.865Z,95146.94
2023-04-11T03:03:02.580Z,95148.00
2023-04-11T03:05:34.611Z,95142.91
2023-04-11T03:08:04.074Z,95143.00
2023-04-11T03:10:36.503Z,95136.81
2023-04-11T03:13:06.808Z,95150.28
2023-04-11T03:15:36.320Z,95143.00
2023-04-11T03:18:10.047Z,95149.00
2023-04-11T03:20:42.624Z,95145.25
2023-04-11T03:23:14.555Z,95148.06
2023-04-11T03:25:45.662Z,95127.44
2023-04-11T03:28:16.636Z,95117.47
2023-04-11T03:30:46.382Z,95123.66
2023-04-11T03:33:20.941Z,95120.94
2023-04-11T03:35:50.456Z,95123.22
2023-04-11T03:38:20.950Z,95121.88
2023-04-11T03:40:51.907Z,95117.81
2023-04-11T03:43:24.427Z,95114.75
2023-04-11T03:45:54.536Z,95119.88
2023-04-11T03:48:39.253Z,95108.56
2023-04-11T03:51:11.456Z,95106.69
2023-04-11T03:53:53.061Z,95103.66
2023-04-11T03:56:31.937Z,95095.56
2023-04-11T03:59:01.698Z,95095.91
2023-04-11T04:01:39.760Z,95091.84
2023-04-11T04:04:10.154Z,95090.19
2023-04-11T04:06:45.893Z,95085.28
2023-04-11T04:09:16.313Z,95098.72
2023-04-11T04:11:54.093Z,95095.16
2023-04-11T04:14:32.698Z,95093.91
2023-04-11T04:17:02.590Z,95100.09
2023-04-11T04:19:32.736Z,95102.56
2023-04-11T04:22:02.155Z,95114.34
2023-04-11T04:24:38.374Z,95114.63
2023-04-11T04:27:26.597Z,95123.44
2023-04-11T04:30:03.590Z,95126.38
2023-04-11T04:32:48.718Z,95117.69
2023-04-11T04:35:18.166Z,95121.63
2023-04-11T04:37:47.710Z,95128.31
2023-04-11T04:40:37.942Z,95137.50
2023-04-11T04:43:18.481Z,95134.75
2023-04-11T04:45:53.494Z,95133.91
2023-04-11T04:48:27.652Z,95135.00
2023-04-11T04:50:57.183Z,95125.59
2023-04-11T04:53:26.902Z,95136.31
2023-04-11T04:56:00.526Z,95134.38
2023-04-11T04:58:33.865Z,95129.72
2023-04-11T05:01:09.321Z,95128.34
2023-04-11T05:03:40.229Z,95125.09
2023-04-11T05:06:14.590Z,95135.59
2023-04-11T05:08:48.568Z,95127.66
2023-04-11T05:11:18.120Z,95142.06
2023-04-11T05:13:49.012Z,95141.31
2023-04-11T05:16:19.112Z,95142.97
2023-04-11T05:18:48.826Z,95144.41
2023-04-11T05:21:18.445Z,95142.50
2023-04-11T05:23:51.258Z,95138.00
2023-04-11T05:26:20.914Z,95145.78
2023-04-11T05:28:51.828Z,95148.81
2023-04-11T05:31:25.724Z,95154.03
2023-04-11T05:33:55.923Z,95150.25
2023-04-11T05:36:26.413Z,95161.59
2023-04-11T05:38:55.918Z,95149.53
2023-04-11T05:41:25.980Z,95164.56
2023-04-11T05:43:57.416Z,95161.88
2023-04-11T05:46:29.378Z,95170.81
2023-04-11T05:48:58.907Z,95161.97
2023-04-11T05:51:28.360Z,95163.41
2023-04-11T05:53:58.507Z,95176.91
2023-04-11T05:56:28.230Z,95180.44
2023-04-11T05:58:58.999Z,95189.69
2023-04-11T06:01:30.245Z,95196.50
2023-04-11T06:04:00.232Z,95197.81
2023-04-11T06:06:30.003Z,95195.69
2023-04-11T06:08:59.690Z,95177.16
2023-04-11T06:11:29.052Z,95179.06
2023-04-11T06:13:59.828Z,95190.69
2023-04-11T06:16:29.455Z,95186.94
2023-04-11T06:18:58.888Z,95202.56
2023-04-11T06:21:28.466Z,95216.00
2023-04-11T06:23:57.902Z,95220.84
2023-04-11T06:26:27.509Z,95235.63
2023-04-11T06:28:56.988Z,95241.53
2023-04-11T06:31:27.937Z,95239.72
2023-04-11T06:33:57.544Z,95228.44
2023-04-11T06:36:27.750Z,95225.81
2023-04-11T06:38:57.171Z,95216.69
2023-04-11T06:41:26.578Z,95222.63
2023-04-11T06:43:56.225Z,95212.94
2023-04-11T06:46:27.232Z,95219.97
2023-04-11T06:48:56.891Z,95221.84
2023-04-11T06:51:26.508Z,95214.06
2023-04-11T06:53:56.737Z,95217.81
2023-04-11T06:56:26.339Z,95225.34
2023-04-11T06:58:56.048Z,95219.72
2023-04-11T07:01:30.665Z,95233.41
2023-04-11T07:04:00.336Z,95246.28
2023-04-11T07:06:31.504Z,95246.28
2023-04-11T07:09:01.411Z,95257.56
2023-04-11T07:11:31.463Z,95258.59
2023-04-11T07:14:02.618Z,95245.97
2023-04-11T07:16:33.846Z,95251.59
2023-04-11T07:19:03.550Z,95262.84
2023-04-11T07:21:33.380Z,95266.06
2023-04-11T07:24:02.986Z,95282.44
2023-04-11T07:26:32.991Z,95282.13
2023-04-11T07:29:02.618Z,95283.97
2023-04-11T07:31:33.435Z,95287.97
2023-04-11T07:34:02.839Z,95306.78
2023-04-11T07:36:32.594Z,95303.78
2023-04-11T07:39:02.213Z,95294.59
2023-04-11T07:41:31.672Z,95315.00
2023-04-11T07:44:01.282Z,95322.78
2023-04-11T07:46:32.139Z,95329.72
2023-04-11T07:49:01.674Z,95332.13
2023-04-11T07:51:31.206Z,95333.19
2023-04-11T07:54:01.078Z,95342.00
2023-04-11T07:56:30.553Z,95333.66
2023-04-11T07:59:01.275Z,95345.19
2023-04-11T08:01:32.361Z,95359.56
2023-04-11T08:04:02.397Z,95347.22
2023-04-11T08:06:32.032Z,95345.06
2023-04-11T08:09:01.976Z,95360.84
2023-04-11T08:11:31.464Z,95368.66
2023-04-11T08:14:01.055Z,95367.56
2023-04-11T08:16:31.941Z,95380.91
2023-04-11T08:19:01.359Z,95382.38
2023-04-11T08:21:31.289Z,95376.69
2023-04-11T08:24:00.839Z,95370.84
2023-04-11T08:26:30.247Z,95380.56
2023-04-11T08:28:59.675Z,95392.19
2023-04-11T08:31:29.458Z,95382.31
2023-04-11T08:34:01.798Z,95389.81
2023-04-11T08:36:32.239Z,95381.78
2023-04-11T08:39:01.585Z,95381.50
2023-04-11T08:41:31.650Z,95373.97
2023-04-11T08:44:01.730Z,95378.84
2023-04-11T08:46:33.748Z,95387.13
2023-04-11T08:49:04.582Z,95381.22
2023-04-11T08:51:34.174Z,95380.22
2023-04-11T08:54:07.057Z,95383.13
2023-04-11T08:56:36.744Z,95377.22
2023-04-11T08:59:06.161Z,95386.06
2023-04-11T09:01:37.419Z,95407.50
2023-04-11T09:04:09.955Z,95397.44
2023-04-11T09:06:40.256Z,95401.13
2023-04-11T09:09:29.558Z,95403.09
2023-04-11T09:11:59.446Z,95401.72
2023-04-11T09:14:29.497Z,95407.91
2023-04-11T09:17:01.947Z,95406.84
2023-04-11T09:19:35.506Z,95409.72
2023-04-11T09:22:06.361Z,95411.47
2023-04-11T09:24:37.468Z,95419.88
2023-04-11T09:27:13.530Z,95423.13
2023-04-11T09:29:45.853Z,95422.59
2023-04-11T09:32:33.395Z,95433.84
2023-04-11T09:35:13.311Z,95433.09
2023-04-11T09:37:48.948Z,95422.63
2023-04-11T09:40:25.043Z,95433.09
2023-04-11T09:43:00.420Z,95433.41
2023-04-11T09:45:41.008Z,95440.94
2023-04-11T09:48:15.977Z,95447.63
2023-04-11T09:50:47.455Z,95442.22
2023-04-11T09:53:16.906Z,95437.72
2023-04-11T09:55:46.916Z,95443.03
2023-04-11T09:58:16.672Z,95446.53
2023-04-11T10:00:49.397Z,95448.66
2023-04-11T10:03:21.440Z,95452.69
2023-04-11T10:05:55.629Z,95449.47
2023-04-11T10:08:32.783Z,95454.31
2023-04-11T10:11:04.088Z,95448.47
2023-04-11T10:13:44.740Z,95441.84
2023-04-11T10:16:16.535Z,95449.09
2023-04-11T10:19:27.105Z,95426.53
2023-04-11T10:21:58.039Z,95422.00
2023-04-11T10:24:27.601Z,95421.19
2023-04-11T10:27:03.201Z,95437.56
2023-04-11T10:29:52.839Z,95457.47
2023-04-11T10:32:26.371Z,95457.50
2023-04-11T10:35:29.885Z,95465.47
2023-04-11T10:38:01.653Z,95469.22
2023-04-11T10:40:31.126Z,95472.72
2023-04-11T10:43:21.897Z,95461.22
2023-04-11T10:46:21.908Z,95468.81
2023-04-11T10:49:03.649Z,95478.00
2023-04-11T10:51:34.911Z,95472.69
2023-04-11T10:54:07.077Z,95478.63
2023-04-11T10:56:58.525Z,95479.47
2023-04-11T11:00:09.459Z,95472.25
2023-04-11T11:02:40.336Z,95478.13
2023-04-11T11:05:23.166Z,95461.50
2023-04-11T11:07:55.000Z,95454.78
2023-04-11T11:10:46.308Z,95468.50
2023-04-11T11:13:17.852Z,95460.97
2023-04-11T11:15:51.682Z,95464.19
2023-04-11T11:18:22.732Z,95468.19
2023-04-11T11:20:57.013Z,95472.50
2023-04-11T11:23:27.044Z,95484.06
2023-04-11T11:26:00.029Z,95488.56
2023-04-11T11:31:04.066Z,95484.84
2023-04-11T11:33:33.523Z,95482.72
2023-04-11T11:36:06.638Z,95489.44
2023-04-11T11:38:36.543Z,95484.06
2023-04-11T11:41:07.942Z,95485.13
2023-04-11T11:43:38.892Z,95475.75
2023-04-11T11:46:14.242Z,95480.03
2023-04-11T11:48:59.484Z,95488.69
2023-04-11T11:51:41.540Z,95501.31
2023-04-11T11:54:12.868Z,95489.78
2023-04-11T11:56:53.138Z,95494.09
2023-04-11T11:59:28.375Z,95500.53
2023-04-11T12:01:58.022Z,95500.00
2023-04-11T12:04:27.691Z,95496.78
2023-04-11T12:06:57.290Z,95479.56
2023-04-11T12:09:33.451Z,95486.84
2023-04-11T12:12:09.629Z,95484.72
2023-04-11T12:14:39.385Z,95486.59
2023-04-11T12:17:10.329Z,95479.31
2023-04-11T12:19:43.684Z,95479.88
2023-04-11T12:22:13.256Z,95477.97
2023-04-11T12:24:42.822Z,95485.25
2023-04-11T12:27:13.638Z,95480.69
2023-04-11T12:29:43.086Z,95484.19
2023-04-11T12:32:12.508Z,95481.16
2023-04-11T12:34:42.028Z,95479.28
2023-04-11T12:37:11.589Z,95478.19
2023-04-11T12:39:41.509Z,95483.31
2023-04-11T12:42:11.881Z,95482.78
2023-04-11T12:44:43.409Z,95482.00
2023-04-11T12:47:12.895Z,95483.31
2023-04-11T12:49:42.363Z,95488.16
2023-04-11T12:52:12.118Z,95479.84
2023-04-11T12:54:41.572Z,95479.81
2023-04-11T12:57:12.351Z,95485.47
2023-04-11T12:59:43.232Z,95476.91
2023-04-11T13:02:12.944Z,95477.44
2023-04-11T13:04:42.569Z,95469.59
2023-04-11T13:07:12.568Z,95471.72
2023-04-11T13:09:42.090Z,95470.59
2023-04-11T13:12:11.783Z,95467.94
2023-04-11T13:14:42.845Z,95475.44
2023-04-11T13:17:13.218Z,95455.56
2023-04-11T13:19:42.775Z,95456.13
2023-04-11T13:22:12.368Z,95460.75
2023-04-11T13:24:42.040Z,95459.41
2023-04-11T13:27:11.512Z,95452.66
2023-04-11T13:29:42.563Z,95455.03
2023-04-11T13:32:12.032Z,95451.25
2023-04-11T13:34:41.523Z,95441.00
2023-04-11T13:37:11.104Z,95441.22
2023-04-11T13:39:40.726Z,95434.47
2023-04-11T13:42:11.506Z,95436.28
2023-04-11T13:44:42.381Z,95434.66
2023-04-11T13:47:11.951Z,95440.56
2023-04-11T13:49:41.396Z,95428.19
2023-04-11T13:52:11.170Z,95428.91
2023-04-11T13:54:40.804Z,95431.00
2023-04-11T13:57:10.363Z,95428.25
2023-04-11T13:59:39.789Z,95417.97
2023-04-11T14:02:11.043Z,95425.78
2023-04-11T14:04:40.718Z,95430.34
2023-04-11T14:07:10.674Z,95434.22
2023-04-11T14:09:40.457Z,95419.75
2023-04-11T14:12:09.906Z,95426.81
2023-04-11T14:14:39.364Z,95430.88
2023-04-11T14:17:10.335Z,95442.69
2023-04-11T14:19:40.415Z,95429.34
2023-04-11T14:22:10.075Z,95424.69
2023-04-11T14:24:39.727Z,95427.66
2023-04-11T14:27:09.428Z,95422.53
2023-04-11T14:29:39.062Z,95429.59
2023-04-11T14:32:10.424Z,95426.69
2023-04-11T14:34:40.150Z,95427.78
2023-04-11T14:37:09.768Z,95423.44
2023-04-11T14:39:39.916Z,95420.38
2023-04-11T14:42:09.840Z,95414.94
2023-04-11T14:44:39.938Z,95412.31
2023-04-11T14:47:10.790Z,95414.19
2023-04-11T14:49:40.405Z,95404.03
2023-04-11T14:52:09.822Z,95394.88
2023-04-11T14:54:39.204Z,95402.00
2023-04-11T14:57:09.625Z,95397.72
2023-04-11T14:59:39.678Z,95406.84
2023-04-11T15:02:10.716Z,95398.34
2023-04-11T15:04:40.501Z,95394.78
2023-04-11T15:07:10.036Z,95396.28
2023-04-11T15:09:39.570Z,95394.75
2023-04-11T15:12:08.963Z,95394.63
2023-04-11T15:14:39.024Z,95405.50
2023-04-11T15:17:09.916Z,95400.34
2023-04-11T15:19:39.383Z,95401.03
2023-04-11T15:22:08.775Z,95396.88
2023-04-11T15:24:38.140Z,95389.59
2023-04-11T15:27:07.687Z,95388.44
2023-04-11T15:29:37.391Z,95385.59
2023-04-11T15:32:07.214Z,95394.97
2023-04-11T15:34:40.226Z,95391.84
2023-04-11T15:37:13.140Z,95386.75
2023-04-11T15:39:42.447Z,95403.19
2023-04-11T15:42:11.885Z,95393.84
2023-04-11T15:44:41.283Z,95392.75
2023-04-11T15:47:11.659Z,95409.84
2023-04-11T15:49:42.646Z,95397.44
2023-04-11T15:52:12.375Z,95404.63
2023-04-11T15:54:41.882Z,95402.47
2023-04-11T15:57:11.289Z,95394.81
2023-04-11T15:59:41.460Z,95406.13
2023-04-11T16:02:11.447Z,95402.50
2023-04-11T16:04:46.993Z,95425.94
2023-04-11T16:07:19.228Z,95411.03
2023-04-11T16:09:48.667Z,95400.63
2023-04-11T16:12:19.005Z,95403.47
2023-04-11T16:14:48.509Z,95409.19
2023-04-11T16:17:19.066Z,95414.94
2023-04-11T16:19:53.600Z,95409.28
2023-04-11T16:22:23.156Z,95405.03
2023-04-11T16:24:52.821Z,95403.16
2023-04-11T16:27:22.208Z,95412.78
2023-04-11T16:29:53.775Z,95407.44
2023-04-11T16:32:23.656Z,95405.06
2023-04-11T16:34:54.921Z,95414.50
2023-04-11T16:37:24.672Z,95418.53
2023-04-11T16:39:54.427Z,95404.78
2023-04-11T16:42:24.278Z,95410.47
2023-04-11T16:44:53.958Z,95400.50
2023-04-11T16:47:26.096Z,95401.59
2023-04-11T16:49:58.523Z,95409.91
2023-04-11T16:52:27.964Z,95406.16
2023-04-11T16:54:57.407Z,95412.06
2023-04-11T16:57:28.001Z,95421.47
2023-04-11T16:59:57.548Z,95405.88
2023-04-11T17:02:27.162Z,95403.19
2023-04-11T17:04:58.010Z,95401.00
2023-04-11T17:07:28.473Z,95406.13
2023-04-11T17:09:57.863Z,95399.91
2023-04-11T17:12:27.338Z,95399.38
2023-04-11T17:14:56.847Z,95405.28
2023-04-11T17:17:26.347Z,95406.09
2023-04-11T17:19:57.379Z,95409.84
2023-04-11T17:22:26.886Z,95408.22
2023-04-11T17:24:56.704Z,95411.97
2023-04-11T17:27:26.100Z,95403.66
2023-04-11T17:29:55.545Z,95407.97
2023-04-11T17:32:25.145Z,95412.75
2023-04-11T17:34:54.809Z,95407.38
2023-04-11T17:37:25.667Z,95408.97
2023-04-11T17:39:55.759Z,95408.41
2023-04-11T17:42:25.363Z,95412.72
2023-04-11T17:44:57.167Z,95398.72
2023-04-11T17:47:28.563Z,95409.75
2023-04-11T17:49:58.039Z,95403.00
2023-04-11T17:52:28.833Z,95403.78
2023-04-11T17:54:58.464Z,95411.00
2023-04-11T17:57:28.432Z,95406.97
2023-04-11T17:59:57.934Z,95418.97
2023-04-11T18:02:27.766Z,95414.63
2023-04-11T18:04:57.460Z,95419.97
2023-04-11T18:07:28.329Z,95419.72
2023-04-11T18:09:58.301Z,95417.50
2023-04-11T18:12:29.348Z,95421.13
2023-04-11T18:14:59.473Z,95432.63
2023-04-11T18:17:29.111Z,95433.63
2023-04-11T18:19:58.762Z,95435.97
2023-04-11T18:22:30.868Z,95436.16
2023-04-11T18:25:02.082Z,95436.06
2023-04-11T18:27:34.032Z,95432.22
2023-04-11T18:30:07.297Z,95436.75
2023-04-11T18:32:40.422Z,95446.59
2023-04-11T18:35:12.874Z,95432.66
2023-04-11T18:37:44.044Z,95434.78
2023-04-11T18:40:15.677Z,95439.22
2023-04-11T18:42:48.831Z,95431.69
2023-04-11T18:45:20.625Z,95447.19
2023-04-11T18:47:51.274Z,95450.41
2023-04-11T18:50:21.027Z,95455.13
2023-04-11T18:52:55.407Z,95443.25
2023-04-11T18:55:26.170Z,95455.25
2023-04-11T18:57:59.199Z,95457.63
2023-04-11T19:00:31.185Z,95449.00
2023-04-11T19:03:01.633Z,95454.53
2023-04-11T19:05:32.092Z,95455.53
2023-04-11T19:08:03.050Z,95450.84
2023-04-11T19:10:32.474Z,95447.34
2023-04-11T19:13:01.866Z,95449.38
2023-04-11T19:15:31.318Z,95437.22
2023-04-11T19:18:01.658Z,95447.03
2023-04-11T19:20:31.402Z,95447.00
2023-04-11T19:23:02.322Z,95444.25
2023-04-11T19:25:31.953Z,95451.94
2023-04-11T19:28:01.670Z,95461.28
2023-04-11T19:30:31.812Z,95455.59
2023-04-11T19:33:01.326Z,95462.31
2023-04-11T19:35:31.317Z,95458.19
2023-04-11T19:38:05.613Z,95451.44
2023-04-11T19:40:36.204Z,95453.22
2023-04-11T19:43:07.446Z,95445.69
2023-04-11T19:45:36.938Z,95439.69
2023-04-11T19:48:06.654Z,95439.78
2023-04-11T19:50:36.208Z,95434.34
2023-04-11T19:53:17.538Z,95436.81
2023-04-11T19:55:52.547Z,95431.06
2023-04-11T19:58:22.537Z,95430.94
2023-04-11T20:00:53.018Z,95424.59
2023-04-11T20:03:23.274Z,95418.28
2023-04-11T20:06:36.063Z,95414.06
2023-04-11T20:09:07.473Z,95418.16
2023-04-11T20:11:37.722Z,95418.88
2023-04-11T20:14:09.284Z,95411.84
2023-04-11T20:16:40.434Z,95418.47
2023-04-11T20:19:10.486Z,95409.19
2023-04-11T20:21:40.302Z,95408.88
2023-04-11T20:24:12.331Z,95405.31
2023-04-11T20:26:42.158Z,95406.03
2023-04-11T20:29:11.880Z,95406.50
2023-04-11T20:31:41.461Z,95405.25
2023-04-11T20:34:11.895Z,95406.41
2023-04-11T20:36:42.057Z,95407.16
2023-04-11T20:39:13.147Z,95399.28
2023-04-11T20:41:42.837Z,95407.16
2023-04-11T20:44:13.167Z,95410.19
2023-04-11T20:46:42.921Z,95410.91
2023-04-11T20:49:12.826Z,95411.84
2023-04-11T20:51:43.739Z,95411.50
2023-04-11T20:54:14.805Z,95418.31
2023-04-11T20:56:44.970Z,95416.94
2023-04-11T20:59:14.618Z,95403.72
2023-04-11T21:01:44.617Z,95409.19
2023-04-11T21:04:15.488Z,95402.94
2023-04-11T21:06:46.327Z,95398.53
2023-04-11T21:09:17.657Z,95396.13
2023-04-11T21:11:47.337Z,95387.53
2023-04-11T21:14:16.919Z,95383.25
2023-04-11T21:16:46.523Z,95394.13
2023-04-11T21:19:16.366Z,95388.59
2023-04-11T21:21:45.927Z,95384.53
2023-04-11T21:24:17.351Z,95379.66
2023-04-11T21:26:48.087Z,95376.44
2023-04-11T21:29:17.839Z,95379.34
2023-04-11T21:31:47.610Z,95369.16
2023-04-11T21:34:17.427Z,95361.88
2023-04-11T21:36:47.362Z,95353.88
2023-04-11T21:39:18.555Z,95363.03
2023-04-11T21:41:48.360Z,95354.09
2023-04-11T21:44:18.075Z,95347.25
2023-04-11T21:46:47.953Z,95344.38
2023-04-11T21:49:18.674Z,95341.47
2023-04-11T21:51:48.882Z,95345.19
2023-04-11T21:54:19.983Z,95337.66
2023-04-11T21:56:49.748Z,95333.38
2023-04-11T21:59:19.379Z,95330.72
2023-04-11T22:01:49.046Z,95331.66
2023-04-11T22:04:18.895Z,95333.50
2023-04-11T22:06:48.514Z,95327.84
2023-04-11T22:09:20.362Z,95319.28
2023-04-11T22:11:50.225Z,95319.84
2023-04-11T22:14:19.837Z,95321.13
2023-04-11T22:16:50.137Z,95310.25
2023-04-11T22:19:20.847Z,95314.06
2023-04-11T22:21:55.774Z,95303.50
2023-04-11T22:25:03.215Z,95305.81
2023-04-11T22:27:38.731Z,95302.22
2023-04-11T22:30:11.238Z,95299.34
2023-04-11T22:32:41.140Z,95297.81
2023-04-11T22:35:11.193Z,95291.44
2023-04-11T22:37:40.670Z,95286.34
2023-04-11T22:40:15.371Z,95283.34
2023-04-11T22:42:46.981Z,95286.94
2023-04-11T22:45:16.645Z,95281.28
2023-04-11T22:47:46.643Z,95272.13
2023-04-11T22:50:16.898Z,95274.22
2023-04-11T22:52:47.640Z,95274.47
2023-04-11T22:55:20.086Z,95275.19
2023-04-11T22:57:49.684Z,95263.16
2023-04-11T23:00:22.274Z,95255.06
2023-04-11T23:02:52.463Z,95259.81
2023-04-11T23:05:22.565Z,95256.56
2023-04-11T23:07:52.669Z,95248.47
2023-04-11T23:10:23.827Z,95240.13
2023-04-11T23:12:54.261Z,95241.91
2023-04-11T23:15:27.865Z,95243.19
2023-04-11T23:17:58.446Z,95242.13
2023-04-11T23:20:28.335Z,95219.56
2023-04-11T23:22:58.499Z,95214.81
2023-04-11T23:25:30.265Z,95206.34
2023-04-11T23:28:00.200Z,95193.63
2023-04-11T23:30:30.765Z,95195.59
2023-04-11T23:33:19.627Z,95188.75
2023-04-11T23:48:10.805Z,95174.63
2023-04-11T23:50:40.953Z,95167.69
2023-04-11T23:53:10.671Z,95175.69
2023-04-11T23:55:41.884Z,95161.56
2023-04-11T23:58:11.511Z,95151.97
